sensor_id;sensor_type;location;lat;lon;timestamp;pressure;altitude;pressure_sealevel;temperature;humidity
28312;BME280;15572;48.810;9.148;2023-08-07T00:00:44;97944.13;;;11.88;100.00
28312;BME280;15572;48.810;9.148;2023-08-07T00:05:44;97946.63;;;11.82;100.00
28312;BME280;15572;48.810;9.148;2023-08-07T00:10:41;97947.88;;;11.87;100.00
28312;BME280;15572;48.810;9.148;2023-08-07T00:15:37;97952.91;;;11.83;100.00
28312;BME280;15572;48.810;9.148;2023-08-07T00:20:34;97949.34;;;11.82;100.00
28312;BME280;15572;48.810;9.148;2023-08-07T00:25:32;97959.16;;;11.84;100.00
28312;BME280;15572;48.810;9.148;2023-08-07T00:30:28;97968.34;;;11.89;100.00
28312;BME280;15572;48.810;9.148;2023-08-07T00:35:25;97969.56;;;11.87;100.00
28312;BME280;15572;48.810;9.148;2023-08-07T00:40:21;97970.41;;;12.00;100.00
28312;BME280;15572;48.810;9.148;2023-08-07T00:45:20;97979.16;;;12.15;100.00
28312;BME280;15572;48.810;9.148;2023-08-07T00:50:16;97989.16;;;12.15;100.00
28312;BME280;15572;48.810;9.148;2023-08-07T00:55:13;97984.56;;;12.15;100.00
28312;BME280;15572;48.810;9.148;2023-08-07T01:00:11;97985.22;;;12.11;100.00
28312;BME280;15572;48.810;9.148;2023-08-07T01:05:12;98001.47;;;12.24;100.00
28312;BME280;15572;48.810;9.148;2023-08-07T01:10:09;97991.63;;;12.30;100.00
28312;BME280;15572;48.810;9.148;2023-08-07T01:15:10;98000.41;;;12.25;100.00
28312;BME280;15572;48.810;9.148;2023-08-07T01:20:09;97997.31;;;12.21;100.00
28312;BME280;15572;48.810;9.148;2023-08-07T01:25:08;98003.97;;;12.19;100.00
28312;BME280;15572;48.810;9.148;2023-08-07T01:30:11;97996.66;;;12.26;100.00
28312;BME280;15572;48.810;9.148;2023-08-07T01:35:11;97989.38;;;12.20;100.00
28312;BME280;15572;48.810;9.148;2023-08-07T01:40:10;97992.47;;;12.30;100.00
28312;BME280;15572;48.810;9.148;2023-08-07T01:45:07;97984.94;;;12.39;100.00
28312;BME280;15572;48.810;9.148;2023-08-07T01:50:04;97986.00;;;12.31;100.00
28312;BME280;15572;48.810;9.148;2023-08-07T01:55:01;97987.03;;;12.37;100.00
28312;BME280;15572;48.810;9.148;2023-08-07T01:59:59;98002.09;;;12.26;100.00
28312;BME280;15572;48.810;9.148;2023-08-07T02:04:55;97989.75;;;12.23;100.00
28312;BME280;15572;48.810;9.148;2023-08-07T02:09:51;97992.72;;;12.29;100.00
28312;BME280;15572;48.810;9.148;2023-08-07T02:14:48;97994.34;;;12.36;100.00
28312;BME280;15572;48.810;9.148;2023-08-07T02:19:46;98007.31;;;12.28;100.00
28312;BME280;15572;48.810;9.148;2023-08-07T02:24:42;98009.59;;;12.31;100.00
28312;BME280;15572;48.810;9.148;2023-08-07T02:29:39;98014.41;;;12.22;100.00
28312;BME280;15572;48.810;9.148;2023-08-07T02:34:35;98016.94;;;12.10;100.00
28312;BME280;15572;48.810;9.148;2023-08-07T02:39:33;98012.56;;;12.09;100.00
28312;BME280;15572;48.810;9.148;2023-08-07T02:44:30;98016.09;;;11.97;100.00
28312;BME280;15572;48.810;9.148;2023-08-07T02:49:26;98021.75;;;11.95;100.00
28312;BME280;15572;48.810;9.148;2023-08-07T02:54:23;98024.25;;;12.10;100.00
28312;BME280;15572;48.810;9.148;2023-08-07T02:59:20;98034.06;;;12.04;100.00
28312;BME280;15572;48.810;9.148;2023-08-07T03:04:17;98021.97;;;12.00;100.00
28312;BME280;15572;48.810;9.148;2023-08-07T03:09:13;98020.69;;;12.03;100.00
28312;BME280;15572;48.810;9.148;2023-08-07T03:14:10;98033.84;;;11.99;100.00
28312;BME280;15572;48.810;9.148;2023-08-07T03:19:07;98023.41;;;12.03;100.00
28312;BME280;15572;48.810;9.148;2023-08-07T03:24:04;98037.00;;;11.96;100.00
28312;BME280;15572;48.810;9.148;2023-08-07T03:29:01;98023.81;;;11.93;100.00
28312;BME280;15572;48.810;9.148;2023-08-07T03:33:57;98033.84;;;11.99;100.00
28312;BME280;15572;48.810;9.148;2023-08-07T03:38:55;98025.91;;;11.98;100.00
28312;BME280;15572;48.810;9.148;2023-08-07T03:43:51;98030.09;;;11.94;100.00
28312;BME280;15572;48.810;9.148;2023-08-07T03:48:48;98038.03;;;11.95;100.00
28312;BME280;15572;48.810;9.148;2023-08-07T03:53:44;98038.84;;;12.02;100.00
28312;BME280;15572;48.810;9.148;2023-08-07T03:58:42;98040.94;;;12.07;100.00
28312;BME280;15572;48.810;9.148;2023-08-07T04:03:39;98031.97;;;12.00;100.00
28312;BME280;15572;48.810;9.148;2023-08-07T04:08:35;98035.09;;;11.97;100.00
28312;BME280;15572;48.810;9.148;2023-08-07T04:13:32;98031.75;;;11.88;100.00
28312;BME280;15572;48.810;9.148;2023-08-07T04:18:30;98034.88;;;11.92;100.00
28312;BME280;15572;48.810;9.148;2023-08-07T04:23:26;98036.97;;;11.90;100.00
28312;BME280;15572;48.810;9.148;2023-08-07T04:28:23;98050.97;;;12.00;100.00
28312;BME280;15572;48.810;9.148;2023-08-07T04:33:20;98064.09;;;12.03;100.00
28312;BME280;15572;48.810;9.148;2023-08-07T04:38:19;98054.72;;;12.05;100.00
28312;BME280;15572;48.810;9.148;2023-08-07T04:43:17;98065.78;;;12.17;100.00
28312;BME280;15572;48.810;9.148;2023-08-07T04:48:15;98063.91;;;12.17;100.00
28312;BME280;15572;48.810;9.148;2023-08-07T04:53:12;98062.03;;;12.11;100.00
28312;BME280;15572;48.810;9.148;2023-08-07T04:58:11;98065.97;;;12.15;100.00
28312;BME280;15572;48.810;9.148;2023-08-07T05:03:07;98077.69;;;12.16;100.00
28312;BME280;15572;48.810;9.148;2023-08-07T05:08:04;98066.38;;;12.26;100.00
28312;BME280;15572;48.810;9.148;2023-08-07T05:13:00;98079.13;;;12.25;100.00
28312;BME280;15572;48.810;9.148;2023-08-07T05:17:58;98078.53;;;12.23;100.00
28312;BME280;15572;48.810;9.148;2023-08-07T05:22:54;98078.09;;;12.26;100.00
28312;BME280;15572;48.810;9.148;2023-08-07T05:27:51;98079.13;;;12.32;100.00
28312;BME280;15572;48.810;9.148;2023-08-07T05:32:48;98076.19;;;12.40;100.00
28312;BME280;15572;48.810;9.148;2023-08-07T05:37:46;98091.81;;;12.51;100.00
28312;BME280;15572;48.810;9.148;2023-08-07T05:42:42;98099.34;;;12.62;100.00
28312;BME280;15572;48.810;9.148;2023-08-07T05:47:39;98091.19;;;12.69;100.00
28312;BME280;15572;48.810;9.148;2023-08-07T05:52:35;98105.56;;;12.82;100.00
28312;BME280;15572;48.810;9.148;2023-08-07T05:57:33;98109.53;;;12.86;99.24
28312;BME280;15572;48.810;9.148;2023-08-07T06:02:30;98105.97;;;12.92;99.22
28312;BME280;15572;48.810;9.148;2023-08-07T06:07:26;98109.09;;;12.96;99.35
28312;BME280;15572;48.810;9.148;2023-08-07T06:12:23;98108.00;;;13.03;98.96
28312;BME280;15572;48.810;9.148;2023-08-07T06:17:21;98121.16;;;13.06;97.42
28312;BME280;15572;48.810;9.148;2023-08-07T06:22:17;98165.28;;;13.08;99.25
28312;BME280;15572;48.810;9.148;2023-08-07T06:27:14;98146.88;;;13.11;100.00
28312;BME280;15572;48.810;9.148;2023-08-07T06:32:10;98148.56;;;13.12;100.00
28312;BME280;15572;48.810;9.148;2023-08-07T06:37:08;98132.00;;;13.20;100.00
28312;BME280;15572;48.810;9.148;2023-08-07T06:42:04;98139.38;;;13.19;98.87
28312;BME280;15572;48.810;9.148;2023-08-07T06:47:01;98132.00;;;13.26;99.50
28312;BME280;15572;48.810;9.148;2023-08-07T06:51:58;98140.72;;;13.41;98.85
28312;BME280;15572;48.810;9.148;2023-08-07T06:56:56;98152.97;;;13.64;94.97
28312;BME280;15572;48.810;9.148;2023-08-07T07:01:52;98150.84;;;13.72;89.10
28312;BME280;15572;48.810;9.148;2023-08-07T07:06:49;98158.22;;;13.97;84.62
28312;BME280;15572;48.810;9.148;2023-08-07T07:11:45;98149.59;;;14.00;81.18
28312;BME280;15572;48.810;9.148;2023-08-07T07:16:43;98151.13;;;13.89;81.36
28312;BME280;15572;48.810;9.148;2023-08-07T07:21:39;98184.44;;;13.84;82.71
28312;BME280;15572;48.810;9.148;2023-08-07T07:26:37;98167.09;;;13.79;84.33
28312;BME280;15572;48.810;9.148;2023-08-07T07:31:33;98176.94;;;13.80;85.78
28312;BME280;15572;48.810;9.148;2023-08-07T07:36:31;98186.81;;;13.74;87.84
28312;BME280;15572;48.810;9.148;2023-08-07T07:41:27;98181.06;;;13.89;89.20
28312;BME280;15572;48.810;9.148;2023-08-07T07:46:24;98182.88;;;14.02;89.02
28312;BME280;15572;48.810;9.148;2023-08-07T07:51:20;98176.75;;;14.13;84.39
28312;BME280;15572;48.810;9.148;2023-08-07T07:56:18;98197.63;;;14.25;75.58
28312;BME280;15572;48.810;9.148;2023-08-07T08:01:15;98192.72;;;14.34;74.20
28312;BME280;15572;48.810;9.148;2023-08-07T08:06:13;98188.97;;;14.35;74.91
28312;BME280;15572;48.810;9.148;2023-08-07T08:11:10;98194.06;;;14.25;75.98
28312;BME280;15572;48.810;9.148;2023-08-07T08:16:07;98199.75;;;14.17;78.76
28312;BME280;15572;48.810;9.148;2023-08-07T08:21:04;98210.41;;;14.25;79.19
28312;BME280;15572;48.810;9.148;2023-08-07T08:26:02;98201.72;;;14.41;77.11
28312;BME280;15572;48.810;9.148;2023-08-07T08:30:58;98206.13;;;14.42;74.19
28312;BME280;15572;48.810;9.148;2023-08-07T08:35:56;98194.16;;;14.43;75.64
28312;BME280;15572;48.810;9.148;2023-08-07T08:40:52;98191.72;;;14.60;70.35
28312;BME280;15572;48.810;9.148;2023-08-07T08:45:49;98204.16;;;14.99;69.66
28312;BME280;15572;48.810;9.148;2023-08-07T08:50:45;98208.97;;;15.22;65.53
28312;BME280;15572;48.810;9.148;2023-08-07T08:55:43;98237.19;;;15.09;64.26
28312;BME280;15572;48.810;9.148;2023-08-07T09:00:42;98236.97;;;15.10;66.32
28312;BME280;15572;48.810;9.148;2023-08-07T09:05:39;98235.03;;;15.36;68.11
28312;BME280;15572;48.810;9.148;2023-08-07T09:10:36;98224.50;;;15.39;65.00
28312;BME280;15572;48.810;9.148;2023-08-07T09:15:37;98249.13;;;15.57;62.96
28312;BME280;15572;48.810;9.148;2023-08-07T09:20:35;98241.44;;;15.48;62.94
28312;BME280;15572;48.810;9.148;2023-08-07T09:25:34;98245.41;;;15.52;65.35
28312;BME280;15572;48.810;9.148;2023-08-07T09:30:31;98235.25;;;15.59;63.67
28312;BME280;15572;48.810;9.148;2023-08-07T09:35:30;98228.41;;;15.68;64.99
28312;BME280;15572;48.810;9.148;2023-08-07T09:40:30;98260.78;;;15.65;61.87
28312;BME280;15572;48.810;9.148;2023-08-07T09:45:28;98248.41;;;15.98;60.61
28312;BME280;15572;48.810;9.148;2023-08-07T09:50:25;98246.91;;;15.84;63.07
28312;BME280;15572;48.810;9.148;2023-08-07T09:55:24;98257.69;;;15.79;63.04
28312;BME280;15572;48.810;9.148;2023-08-07T10:00:20;98273.81;;;15.63;63.47
28312;BME280;15572;48.810;9.148;2023-08-07T10:05:17;98260.28;;;16.04;61.06
28312;BME280;15572;48.810;9.148;2023-08-07T10:10:15;98262.28;;;15.97;62.15
28312;BME280;15572;48.810;9.148;2023-08-07T10:15:14;98236.28;;;16.54;60.27
28312;BME280;15572;48.810;9.148;2023-08-07T10:20:11;98252.75;;;16.66;59.45
28312;BME280;15572;48.810;9.148;2023-08-07T10:25:08;98260.13;;;16.47;56.64
28312;BME280;15572;48.810;9.148;2023-08-07T10:30:07;98274.34;;;16.37;57.19
28312;BME280;15572;48.810;9.148;2023-08-07T10:35:07;98252.63;;;16.13;57.58
28312;BME280;15572;48.810;9.148;2023-08-07T10:40:05;98260.38;;;15.97;56.72
28312;BME280;15572;48.810;9.148;2023-08-07T10:45:05;98261.69;;;15.95;58.96
28312;BME280;15572;48.810;9.148;2023-08-07T10:50:03;98258.41;;;16.05;57.58
28312;BME280;15572;48.810;9.148;2023-08-07T10:55:01;98265.88;;;16.27;55.00
28312;BME280;15572;48.810;9.148;2023-08-07T11:00:02;98280.09;;;16.48;55.33
28312;BME280;15572;48.810;9.148;2023-08-07T11:05:00;98250.38;;;16.51;54.39
28312;BME280;15572;48.810;9.148;2023-08-07T11:09:58;98270.16;;;16.35;55.33
28312;BME280;15572;48.810;9.148;2023-08-07T11:14:56;98273.66;;;16.42;57.21
28312;BME280;15572;48.810;9.148;2023-08-07T11:19:53;98289.63;;;16.27;59.70
28312;BME280;15572;48.810;9.148;2023-08-07T11:24:50;98276.28;;;16.19;60.76
28312;BME280;15572;48.810;9.148;2023-08-07T11:29:47;98273.84;;;16.29;62.25
28312;BME280;15572;48.810;9.148;2023-08-07T11:34:48;98273.31;;;16.20;61.38
28312;BME280;15572;48.810;9.148;2023-08-07T11:39:45;98273.22;;;15.97;62.41
28312;BME280;15572;48.810;9.148;2023-08-07T11:44:41;98277.78;;;15.85;64.28
28312;BME280;15572;48.810;9.148;2023-08-07T11:49:38;98282.59;;;15.83;65.98
28312;BME280;15572;48.810;9.148;2023-08-07T11:54:36;98290.44;;;15.79;66.33
28312;BME280;15572;48.810;9.148;2023-08-07T11:59:32;98287.47;;;15.81;66.23
28312;BME280;15572;48.810;9.148;2023-08-07T12:04:31;98292.84;;;15.87;65.67
28312;BME280;15572;48.810;9.148;2023-08-07T12:09:31;98282.59;;;16.01;67.18
28312;BME280;15572;48.810;9.148;2023-08-07T12:14:30;98302.94;;;16.35;65.73
28312;BME280;15572;48.810;9.148;2023-08-07T12:19:35;98284.09;;;16.15;68.29
28312;BME280;15572;48.810;9.148;2023-08-07T12:24:32;98292.81;;;16.24;69.99
28312;BME280;15572;48.810;9.148;2023-08-07T12:29:29;98304.25;;;16.32;69.74
28312;BME280;15572;48.810;9.148;2023-08-07T12:34:26;98307.97;;;16.38;67.74
28312;BME280;15572;48.810;9.148;2023-08-07T12:39:22;98308.53;;;16.58;67.30
28312;BME280;15572;48.810;9.148;2023-08-07T12:44:19;98291.00;;;16.77;64.63
28312;BME280;15572;48.810;9.148;2023-08-07T12:49:18;98294.16;;;17.04;65.65
28312;BME280;15572;48.810;9.148;2023-08-07T12:54:14;98289.19;;;17.01;66.38
28312;BME280;15572;48.810;9.148;2023-08-07T12:59:11;98292.13;;;17.00;63.25
28312;BME280;15572;48.810;9.148;2023-08-07T13:04:07;98289.66;;;17.10;64.77
28312;BME280;15572;48.810;9.148;2023-08-07T13:09:05;98293.34;;;17.04;65.01
28312;BME280;15572;48.810;9.148;2023-08-07T13:14:02;98294.16;;;17.04;68.19
28312;BME280;15572;48.810;9.148;2023-08-07T13:18:58;98298.66;;;16.87;68.79
28312;BME280;15572;48.810;9.148;2023-08-07T13:23:55;98284.75;;;16.77;71.34
28312;BME280;15572;48.810;9.148;2023-08-07T13:28:52;98301.63;;;16.86;66.43
28312;BME280;15572;48.810;9.148;2023-08-07T13:33:49;98288.72;;;17.16;60.29
28312;BME280;15572;48.810;9.148;2023-08-07T13:38:46;98295.16;;;17.56;60.56
28312;BME280;15572;48.810;9.148;2023-08-07T13:43:42;98292.00;;;18.11;58.02
28312;BME280;15572;48.810;9.148;2023-08-07T13:48:40;98293.88;;;17.71;57.98
28312;BME280;15572;48.810;9.148;2023-08-07T13:53:36;98288.25;;;17.54;60.99
28312;BME280;15572;48.810;9.148;2023-08-07T13:58:33;98289.34;;;17.30;60.51
28312;BME280;15572;48.810;9.148;2023-08-07T14:03:30;98297.91;;;17.33;61.33
28312;BME280;15572;48.810;9.148;2023-08-07T14:08:27;98297.78;;;17.51;60.19
28312;BME280;15572;48.810;9.148;2023-08-07T14:13:24;98298.25;;;17.95;56.99
28312;BME280;15572;48.810;9.148;2023-08-07T14:18:20;98288.81;;;18.42;54.08
28312;BME280;15572;48.810;9.148;2023-08-07T14:23:17;98299.34;;;18.22;54.56
28312;BME280;15572;48.810;9.148;2023-08-07T14:28:15;98300.38;;;17.93;55.51
28312;BME280;15572;48.810;9.148;2023-08-07T14:33:12;98306.94;;;17.92;56.47
28312;BME280;15572;48.810;9.148;2023-08-07T14:38:08;98306.81;;;17.98;55.30
28312;BME280;15572;48.810;9.148;2023-08-07T14:43:04;98300.81;;;18.13;56.36
28312;BME280;15572;48.810;9.148;2023-08-07T14:48:03;98288.66;;;18.77;54.41
28312;BME280;15572;48.810;9.148;2023-08-07T14:52:59;98291.28;;;19.51;52.69
28312;BME280;15572;48.810;9.148;2023-08-07T14:57:56;98297.03;;;19.32;52.37
28312;BME280;15572;48.810;9.148;2023-08-07T15:02:52;98293.28;;;18.32;57.51
28312;BME280;15572;48.810;9.148;2023-08-07T15:07:50;98305.47;;;18.01;58.01
28312;BME280;15572;48.810;9.148;2023-08-07T15:12:46;98304.94;;;17.76;56.72
28312;BME280;15572;48.810;9.148;2023-08-07T15:17:43;98311.25;;;17.64;59.07
28312;BME280;15572;48.810;9.148;2023-08-07T15:22:39;98311.47;;;17.51;59.48
28312;BME280;15572;48.810;9.148;2023-08-07T15:27:37;98313.00;;;17.59;58.76
28312;BME280;15572;48.810;9.148;2023-08-07T15:32:34;98307.22;;;17.67;59.09
28312;BME280;15572;48.810;9.148;2023-08-07T15:37:30;98299.31;;;17.94;60.16
28312;BME280;15572;48.810;9.148;2023-08-07T15:42:26;98304.75;;;18.45;58.78
28312;BME280;15572;48.810;9.148;2023-08-07T15:47:24;98307.41;;;18.40;58.88
28312;BME280;15572;48.810;9.148;2023-08-07T15:52:21;98309.38;;;18.17;58.06
28312;BME280;15572;48.810;9.148;2023-08-07T15:57:17;98326.44;;;18.07;60.67
28312;BME280;15572;48.810;9.148;2023-08-07T16:02:14;98314.53;;;17.90;58.44
28312;BME280;15572;48.810;9.148;2023-08-07T16:07:11;98313.13;;;17.87;59.40
28312;BME280;15572;48.810;9.148;2023-08-07T16:12:08;98310.72;;;18.14;58.40
28312;BME280;15572;48.810;9.148;2023-08-07T16:17:05;98296.53;;;18.45;56.22
28312;BME280;15572;48.810;9.148;2023-08-07T16:22:02;98303.31;;;18.55;56.91
28312;BME280;15572;48.810;9.148;2023-08-07T16:27:00;98295.50;;;18.75;57.21
28312;BME280;15572;48.810;9.148;2023-08-07T16:31:57;98295.09;;;18.55;57.44
28312;BME280;15572;48.810;9.148;2023-08-07T16:36:54;98293.66;;;18.64;57.97
28312;BME280;15572;48.810;9.148;2023-08-07T16:41:50;98299.22;;;18.69;55.71
28312;BME280;15572;48.810;9.148;2023-08-07T16:46:48;98287.94;;;18.54;57.07
28312;BME280;15572;48.810;9.148;2023-08-07T16:51:45;98305.22;;;18.54;58.07
28312;BME280;15572;48.810;9.148;2023-08-07T16:56:41;98293.44;;;18.14;58.88
28312;BME280;15572;48.810;9.148;2023-08-07T17:01:39;98301.13;;;18.28;59.41
28312;BME280;15572;48.810;9.148;2023-08-07T17:06:37;98299.81;;;18.31;59.44
28312;BME280;15572;48.810;9.148;2023-08-07T17:11:33;98290.91;;;18.24;56.67
28312;BME280;15572;48.810;9.148;2023-08-07T17:16:30;98321.97;;;18.29;54.84
28312;BME280;15572;48.810;9.148;2023-08-07T17:21:26;98301.50;;;18.32;55.13
28312;BME280;15572;48.810;9.148;2023-08-07T17:26:24;98297.72;;;18.21;55.27
28312;BME280;15572;48.810;9.148;2023-08-07T17:31:24;98296.38;;;18.24;56.63
28312;BME280;15572;48.810;9.148;2023-08-07T17:36:21;98300.72;;;18.48;55.12
28312;BME280;15572;48.810;9.148;2023-08-07T17:41:17;98301.22;;;18.33;58.17
28312;BME280;15572;48.810;9.148;2023-08-07T17:46:17;98303.09;;;18.16;60.29
28312;BME280;15572;48.810;9.148;2023-08-07T17:51:13;98301.34;;;17.98;61.91
28312;BME280;15572;48.810;9.148;2023-08-07T17:56:10;98315.50;;;17.95;62.98
28312;BME280;15572;48.810;9.148;2023-08-07T18:01:06;98315.53;;;17.84;64.09
28312;BME280;15572;48.810;9.148;2023-08-07T18:06:04;98312.41;;;17.80;65.13
28312;BME280;15572;48.810;9.148;2023-08-07T18:11:01;98315.41;;;17.55;65.53
28312;BME280;15572;48.810;9.148;2023-08-07T18:15:57;98321.69;;;17.44;64.47
28312;BME280;15572;48.810;9.148;2023-08-07T18:20:54;98325.34;;;17.26;67.02
28312;BME280;15572;48.810;9.148;2023-08-07T18:25:51;98325.09;;;17.16;67.84
28312;BME280;15572;48.810;9.148;2023-08-07T18:30:48;98329.59;;;16.99;68.18
28312;BME280;15572;48.810;9.148;2023-08-07T18:35:44;98326.00;;;16.87;68.92
28312;BME280;15572;48.810;9.148;2023-08-07T18:40:41;98333.34;;;16.75;69.27
28312;BME280;15572;48.810;9.148;2023-08-07T18:45:39;98340.66;;;16.63;70.42
28312;BME280;15572;48.810;9.148;2023-08-07T18:50:35;98339.97;;;16.49;71.44
28312;BME280;15572;48.810;9.148;2023-08-07T18:55:32;98336.13;;;16.38;72.58
28312;BME280;15572;48.810;9.148;2023-08-07T19:00:29;98342.72;;;16.31;72.41
28312;BME280;15572;48.810;9.148;2023-08-07T19:05:27;98345.38;;;16.19;73.38
28312;BME280;15572;48.810;9.148;2023-08-07T19:10:23;98350.94;;;16.13;73.39
28312;BME280;15572;48.810;9.148;2023-08-07T19:15:20;98349.72;;;16.09;73.90
28312;BME280;15572;48.810;9.148;2023-08-07T19:20:16;98352.75;;;16.00;74.12
28312;BME280;15572;48.810;9.148;2023-08-07T19:25:14;98353.91;;;16.11;72.53
28312;BME280;15572;48.810;9.148;2023-08-07T19:30:11;98344.25;;;16.09;72.63
28312;BME280;15572;48.810;9.148;2023-08-07T19:35:08;98341.47;;;15.97;73.61
28312;BME280;15572;48.810;9.148;2023-08-07T19:40:05;98351.25;;;15.86;74.15
28312;BME280;15572;48.810;9.148;2023-08-07T19:45:05;98345.59;;;15.81;74.80
28312;BME280;15572;48.810;9.148;2023-08-07T19:50:02;98345.91;;;15.73;75.25
28312;BME280;15572;48.810;9.148;2023-08-07T19:54:59;98350.84;;;15.65;76.11
28312;BME280;15572;48.810;9.148;2023-08-07T19:59:55;98353.63;;;15.58;76.75
28312;BME280;15572;48.810;9.148;2023-08-07T20:04:53;98358.09;;;15.52;77.39
28312;BME280;15572;48.810;9.148;2023-08-07T20:09:50;98359.63;;;15.42;78.70
28312;BME280;15572;48.810;9.148;2023-08-07T20:14:46;98361.34;;;15.36;78.87
28312;BME280;15572;48.810;9.148;2023-08-07T20:19:43;98360.13;;;15.32;79.29
28312;BME280;15572;48.810;9.148;2023-08-07T20:24:43;98351.38;;;15.24;79.62
28312;BME280;15572;48.810;9.148;2023-08-07T20:29:39;98348.97;;;15.34;78.87
28312;BME280;15572;48.810;9.148;2023-08-07T20:34:36;98344.97;;;15.36;78.23
28312;BME280;15572;48.810;9.148;2023-08-07T20:39:32;98350.88;;;15.33;78.90
28312;BME280;15572;48.810;9.148;2023-08-07T20:44:30;98345.03;;;15.30;79.17
28312;BME280;15572;48.810;9.148;2023-08-07T20:49:27;98337.00;;;15.35;78.66
28312;BME280;15572;48.810;9.148;2023-08-07T20:54:23;98332.69;;;15.27;79.50
28312;BME280;15572;48.810;9.148;2023-08-07T20:59:20;98332.75;;;15.21;80.04
28312;BME280;15572;48.810;9.148;2023-08-07T21:04:17;98334.28;;;15.10;81.37
28312;BME280;15572;48.810;9.148;2023-08-07T21:09:14;98336.44;;;15.01;81.90
28312;BME280;15572;48.810;9.148;2023-08-07T21:14:10;98330.44;;;14.93;82.98
28312;BME280;15572;48.810;9.148;2023-08-07T21:19:07;98326.28;;;14.90;82.86
28312;BME280;15572;48.810;9.148;2023-08-07T21:24:05;98330.72;;;14.85;84.14
28312;BME280;15572;48.810;9.148;2023-08-07T21:29:06;98317.31;;;14.83;84.58
28312;BME280;15572;48.810;9.148;2023-08-07T21:34:03;98315.25;;;14.79;84.77
28312;BME280;15572;48.810;9.148;2023-08-07T21:38:59;98311.84;;;14.83;84.35
28312;BME280;15572;48.810;9.148;2023-08-07T21:43:57;98307.25;;;14.84;84.09
28312;BME280;15572;48.810;9.148;2023-08-07T21:48:54;98312.44;;;14.85;83.92
28312;BME280;15572;48.810;9.148;2023-08-07T21:53:50;98307.47;;;14.82;83.96
28312;BME280;15572;48.810;9.148;2023-08-07T21:58:47;98312.09;;;14.75;84.75
28312;BME280;15572;48.810;9.148;2023-08-07T22:03:44;98316.97;;;14.73;85.17
28312;BME280;15572;48.810;9.148;2023-08-07T22:08:41;98304.84;;;14.69;85.50
28312;BME280;15572;48.810;9.148;2023-08-07T22:13:37;98306.59;;;14.57;86.34
28312;BME280;15572;48.810;9.148;2023-08-07T22:18:34;98308.28;;;14.51;87.33
28312;BME280;15572;48.810;9.148;2023-08-07T22:23:32;98293.56;;;14.59;86.67
28312;BME280;15572;48.810;9.148;2023-08-07T22:28:29;98296.69;;;14.62;85.95
28312;BME280;15572;48.810;9.148;2023-08-07T22:33:25;98294.81;;;14.63;85.86
28312;BME280;15572;48.810;9.148;2023-08-07T22:38:22;98293.63;;;14.52;87.39
28312;BME280;15572;48.810;9.148;2023-08-07T22:43:20;98281.91;;;14.52;87.38
28312;BME280;15572;48.810;9.148;2023-08-07T22:48:16;98286.09;;;14.48;87.29
28312;BME280;15572;48.810;9.148;2023-08-07T22:53:13;98282.31;;;14.49;86.97
28312;BME280;15572;48.810;9.148;2023-08-07T22:58:09;98284.63;;;14.52;86.69
28312;BME280;15572;48.810;9.148;2023-08-07T23:03:07;98279.00;;;14.47;87.34
28312;BME280;15572;48.810;9.148;2023-08-07T23:08:04;98274.56;;;14.52;86.77
28312;BME280;15572;48.810;9.148;2023-08-07T23:13:01;98275.56;;;14.58;86.52
28312;BME280;15572;48.810;9.148;2023-08-07T23:17:58;98278.34;;;14.51;87.20
28312;BME280;15572;48.810;9.148;2023-08-07T23:22:56;98274.72;;;14.57;86.74
28312;BME280;15572;48.810;9.148;2023-08-07T23:27:52;98276.66;;;14.50;87.84
28312;BME280;15572;48.810;9.148;2023-08-07T23:32:48;98268.94;;;14.47;87.90
28312;BME280;15572;48.810;9.148;2023-08-07T23:37:45;98266.47;;;14.32;89.44
28312;BME280;15572;48.810;9.148;2023-08-07T23:42:43;98261.88;;;14.26;90.08
28312;BME280;15572;48.810;9.148;2023-08-07T23:47:39;98261.47;;;14.29;89.87
28312;BME280;15572;48.810;9.148;2023-08-07T23:52:36;98251.81;;;14.33;89.68
28312;BME280;15572;48.810;9.148;2023-08-07T23:57:32;98243.41;;;14.35;89.86
